Time;durP1;ratioP1;P1;durP2;ratioP2;P2;SDS_P1;SDS_P2;PMS_P1;PMS_P2;Temp;Humidity;BMP_temperature;BMP_pressure;BME280_temperature;BME280_humidity;BME280_pressure;Samples;Min_cycle;Max_cycle;Signal;HPM_P1;HPM_P2
2021/07/20 00:01:45;;;;;;;0.10;0.10;;;21.10;53.60;;;;;;5037276;28;20017;-84
2021/07/20 00:04:11;;;;;;;0.80;0.60;;;21.10;54.00;;;;;;5039357;28;20275;-84
2021/07/20 00:06:37;;;;;;;3.10;1.60;;;21.00;54.50;;;;;;5038571;28;20108;-84
2021/07/20 00:09:06;;;;;;;0.83;0.67;;;20.70;56.00;;;;;;5048878;28;20116;-84
2021/07/20 00:11:33;;;;;;;1.23;0.85;;;20.60;56.00;;;;;;5036914;28;20081;-84
2021/07/20 00:13:59;;;;;;;0.20;0.20;;;20.80;56.10;;;;;;5041583;28;20748;-84
2021/07/20 00:16:24;;;;;;;0.63;0.43;;;20.80;56.60;;;;;;5035430;28;20027;-83
2021/07/20 00:18:51;;;;;;;0.00;0.00;;;20.60;57.30;;;;;;5041706;28;20025;-84
2021/07/20 00:21:17;;;;;;;1.25;0.20;;;20.80;56.90;;;;;;5035874;28;20396;-84
2021/07/20 00:23:43;;;;;;;0.10;0.10;;;20.80;56.30;;;;;;5040942;28;20033;-84
2021/07/20 00:26:09;;;;;;;0.80;0.57;;;20.80;56.10;;;;;;5040663;28;20486;-85
2021/07/20 00:28:36;;;;;;;0.65;0.38;;;20.80;56.90;;;;;;5036285;28;20029;-85
2021/07/20 00:31:02;;;;;;;0.13;0.13;;;20.60;57.20;;;;;;5040159;28;20067;-85
2021/07/20 00:33:28;;;;;;;1.55;0.43;;;20.50;58.50;;;;;;5039974;28;20026;-85
2021/07/20 00:35:54;;;;;;;0.50;0.50;;;20.80;57.10;;;;;;5037739;28;20455;-86
2021/07/20 00:38:20;;;;;;;0.03;0.03;;;20.70;57.70;;;;;;5033859;28;20056;-85
2021/07/20 00:40:46;;;;;;;1.03;0.37;;;20.60;58.40;;;;;;5038507;28;20360;-86
2021/07/20 00:43:12;;;;;;;0.65;0.65;;;20.60;58.40;;;;;;5039292;28;20036;-85
2021/07/20 00:45:39;;;;;;;0.20;0.13;;;20.30;60.00;;;;;;5037772;28;20026;-85
2021/07/20 00:48:05;;;;;;;0.52;0.52;;;20.40;59.30;;;;;;5039891;28;20021;-85
2021/07/20 00:50:41;;;;;;;0.40;0.38;;;20.60;59.00;;;;;;5042461;28;20073;-85
2021/07/20 00:53:09;;;;;;;0.45;0.45;;;20.90;59.00;;;;;;5041387;28;20662;-85
2021/07/20 00:55:37;;;;;;;0.10;0.10;;;20.60;58.90;;;;;;5038985;28;20124;-85
2021/07/20 00:58:05;;;;;;;1.48;1.38;;;20.50;59.30;;;;;;5039926;28;20405;-85
2021/07/20 01:00:32;;;;;;;0.95;0.25;;;20.50;59.80;;;;;;5042846;28;20117;-84
2021/07/20 01:02:59;;;;;;;1.23;0.45;;;20.40;60.00;;;;;;5037794;28;20543;-84
2021/07/20 01:05:27;;;;;;;2.72;0.82;;;20.40;60.70;;;;;;5038043;28;20032;-85
2021/07/20 01:07:54;;;;;;;0.38;0.15;;;20.40;60.60;;;;;;5038696;28;20536;-85
2021/07/20 01:10:23;;;;;;;0.75;0.75;;;20.50;61.00;;;;;;5032772;28;20037;-84
2021/07/20 01:12:50;;;;;;;0.30;0.30;;;20.40;60.80;;;;;;5040871;28;20028;-84
2021/07/20 01:15:20;;;;;;;0.30;0.30;;;20.30;61.20;;;;;;5041027;28;20113;-84
2021/07/20 01:17:51;;;;;;;3.83;0.20;;;20.00;62.80;;;;;;5034858;28;20083;-84
2021/07/20 01:20:22;;;;;;;1.65;0.75;;;20.30;61.50;;;;;;5036904;28;20025;-84
2021/07/20 01:22:59;;;;;;;0.28;0.28;;;20.10;63.00;;;;;;5039269;28;20021;-85
2021/07/20 01:25:25;;;;;;;0.57;0.57;;;20.20;62.20;;;;;;5038928;28;20087;-85
2021/07/20 01:27:57;;;;;;;0.15;0.15;;;20.10;63.00;;;;;;5040764;28;20053;-85
2021/07/20 01:30:24;;;;;;;0.20;0.20;;;20.00;63.50;;;;;;5041094;28;20044;-85
2021/07/20 01:32:51;;;;;;;0.20;0.20;;;20.00;63.40;;;;;;5040982;28;20021;-85
2021/07/20 01:35:18;;;;;;;0.57;0.50;;;20.00;63.70;;;;;;5037970;28;20880;-85
2021/07/20 01:37:47;;;;;;;0.17;0.17;;;20.00;64.70;;;;;;5044436;28;20056;-85
2021/07/20 01:40:13;;;;;;;0.38;0.38;;;20.00;64.20;;;;;;5034778;28;20033;-85
2021/07/20 01:42:43;;;;;;;2.35;1.25;;;19.90;64.70;;;;;;5040556;28;20504;-85
2021/07/20 01:45:10;;;;;;;0.15;0.15;;;19.80;65.90;;;;;;5033166;28;20030;-85
2021/07/20 01:47:38;;;;;;;0.28;0.28;;;19.70;66.00;;;;;;5034999;28;20060;-85
2021/07/20 01:50:05;;;;;;;0.57;0.50;;;19.60;67.30;;;;;;5038273;28;20032;-85
2021/07/20 01:52:32;;;;;;;0.40;0.40;;;19.40;67.80;;;;;;5040320;28;20052;-84
2021/07/20 01:54:59;;;;;;;0.30;0.22;;;19.40;68.70;;;;;;5040150;28;20501;-84
2021/07/20 01:57:25;;;;;;;2.47;0.95;;;19.50;68.30;;;;;;5033279;28;20427;-84
2021/07/20 01:59:52;;;;;;;3.63;1.20;;;19.50;68.20;;;;;;5032029;28;20136;-84
2021/07/20 02:02:30;;;;;;;0.17;0.10;;;19.50;68.40;;;;;;5034839;28;20466;-84
2021/07/20 02:10:22;;;;;;;1.45;0.47;;;19.50;70.30;;;;;;5045376;28;20040;-84
2021/07/20 02:12:48;;;;;;;0.15;0.15;;;19.40;70.20;;;;;;5043767;28;20838;-84
2021/07/20 02:15:15;;;;;;;0.10;0.10;;;19.30;70.80;;;;;;5041292;28;20536;-84
2021/07/20 02:17:42;;;;;;;4.47;0.70;;;19.20;71.10;;;;;;5036936;28;20060;-84
2021/07/20 02:20:13;;;;;;;0.40;0.20;;;19.20;71.40;;;;;;5035869;28;20029;-84
2021/07/20 02:22:39;;;;;;;0.13;0.13;;;19.30;70.90;;;;;;5039546;28;20025;-85
2021/07/20 02:25:07;;;;;;;0.55;0.55;;;19.40;70.90;;;;;;5038300;28;20079;-84
2021/07/20 02:27:33;;;;;;;0.00;0.00;;;19.40;71.70;;;;;;5035303;28;20017;-84
2021/07/20 02:30:05;;;;;;;0.25;0.25;;;19.40;71.50;;;;;;5039150;28;20052;-84
2021/07/20 02:32:32;;;;;;;0.13;0.13;;;19.10;72.60;;;;;;5039593;28;20040;-84
2021/07/20 02:35:00;;;;;;;0.85;0.63;;;19.10;73.60;;;;;;5035672;28;20029;-84
2021/07/20 02:37:29;;;;;;;1.13;0.43;;;19.20;73.00;;;;;;5043543;28;20033;-84
2021/07/20 02:39:56;;;;;;;0.10;0.10;;;19.30;73.00;;;;;;5040114;28;20071;-84
2021/07/20 02:42:22;;;;;;;;;;;19.40;73.00;;;;;;5036631;28;20569;-85
2021/07/20 02:44:49;;;;;;;;;;;19.50;72.70;;;;;;5041656;28;19912;-84
2021/07/20 02:47:16;;;;;;;0.10;0.10;;;19.50;72.40;;;;;;5037240;28;19909;-84
2021/07/20 02:49:43;;;;;;;0.00;0.00;;;19.50;72.90;;;;;;5031820;28;20025;-83
2021/07/20 02:52:09;;;;;;;0.28;0.28;;;19.50;73.20;;;;;;5033975;28;20106;-85
2021/07/20 02:54:36;;;;;;;0.03;0.03;;;19.50;72.70;;;;;;5037697;28;20022;-85
2021/07/20 02:57:02;;;;;;;;;;;19.50;73.30;;;;;;5042296;28;20045;-84
2021/07/20 02:59:29;;;;;;;0.32;0.32;;;19.50;74.00;;;;;;5032458;28;19979;-85
2021/07/20 03:01:58;;;;;;;0.65;0.32;;;19.40;74.10;;;;;;5038429;28;20047;-84
2021/07/20 03:04:24;;;;;;;0.40;0.28;;;19.30;75.00;;;;;;5036183;28;20036;-84
2021/07/20 03:06:55;;;;;;;0.00;0.00;;;19.20;75.70;;;;;;5035162;28;20025;-84
2021/07/20 03:09:24;;;;;;;0.10;0.10;;;19.20;75.60;;;;;;5029681;28;20059;-84
2021/07/20 03:11:57;;;;;;;3.10;1.27;;;19.20;75.50;;;;;;5035513;28;20079;-84
2021/07/20 03:14:25;;;;;;;0.50;0.50;;;19.20;76.10;;;;;;5046858;28;20026;-84
2021/07/20 03:16:53;;;;;;;0.63;0.63;;;19.20;77.00;;;;;;5042564;28;20518;-85
2021/07/20 03:19:23;;;;;;;0.10;0.10;;;19.20;76.60;;;;;;5037702;28;20114;-83
2021/07/20 03:21:52;;;;;;;0.00;0.00;;;19.30;76.70;;;;;;5039115;28;20560;-84
2021/07/20 03:24:19;;;;;;;0.52;0.45;;;19.00;77.40;;;;;;5040386;28;20029;-84
2021/07/20 03:26:46;;;;;;;0.98;0.70;;;19.10;77.90;;;;;;5040091;28;20029;-84
2021/07/20 03:29:14;;;;;;;0.40;0.40;;;19.10;78.00;;;;;;5035715;28;20436;-84
2021/07/20 03:31:41;;;;;;;0.25;0.25;;;19.10;78.20;;;;;;5030213;28;20144;-85
2021/07/20 03:34:07;;;;;;;;;;;19.20;78.10;;;;;;5033298;28;20029;-84
2021/07/20 03:36:33;;;;;;;1.73;0.60;;;19.20;78.10;;;;;;5039403;28;19908;-84
2021/07/20 03:39:00;;;;;;;;;;;19.00;80.50;;;;;;5035780;28;20634;-84
2021/07/20 03:41:27;;;;;;;;;;;18.90;79.60;;;;;;5033512;28;20348;-84
2021/07/20 03:43:55;;;;;;;0.85;0.50;;;18.90;79.60;;;;;;5037095;28;19963;-84
2021/07/20 03:46:21;;;;;;;0.40;0.40;;;19.10;79.30;;;;;;5038869;28;20057;-84
2021/07/20 03:48:48;;;;;;;0.40;0.40;;;19.00;79.70;;;;;;5037906;28;20022;-84
2021/07/20 03:51:16;;;;;;;0.10;0.10;;;18.90;80.60;;;;;;5039961;28;20064;-84
2021/07/20 03:53:43;;;;;;;0.22;0.22;;;18.80;81.30;;;;;;5037591;28;20032;-84
2021/07/20 03:56:09;;;;;;;2.25;1.77;;;18.90;81.20;;;;;;5034323;28;20525;-84
2021/07/20 03:58:39;;;;;;;0.20;0.20;;;18.80;82.60;;;;;;5036760;28;20025;-84
2021/07/20 04:01:05;;;;;;;0.30;0.25;;;18.90;81.60;;;;;;5035659;28;20042;-84
2021/07/20 04:03:34;;;;;;;1.55;0.63;;;19.00;81.10;;;;;;5034621;28;20029;-84
2021/07/20 04:06:03;;;;;;;0.63;0.63;;;18.80;92.50;;;;;;5031954;28;20041;-84
2021/07/20 04:08:31;;;;;;;0.20;0.20;;;18.80;83.10;;;;;;5034154;28;20025;-84
2021/07/20 04:10:58;;;;;;;0.20;0.20;;;18.60;83.40;;;;;;5033750;28;20488;-84
2021/07/20 04:13:24;;;;;;;12.15;2.35;;;18.80;84.40;;;;;;5030161;28;20564;-84
2021/07/20 04:15:58;;;;;;;0.52;0.52;;;18.70;83.80;;;;;;5041764;28;20029;-84
2021/07/20 04:18:25;;;;;;;0.40;0.35;;;18.70;83.90;;;;;;5039992;28;20132;-84
2021/07/20 04:20:51;;;;;;;0.60;0.38;;;18.70;93.60;;;;;;5034695;28;20033;-84
2021/07/20 04:23:22;;;;;;;0.45;0.45;;;18.70;84.30;;;;;;5029992;28;20028;-84
2021/07/20 04:25:53;;;;;;;0.20;0.20;;;18.70;84.40;;;;;;5031660;28;20201;-84
2021/07/20 04:28:21;;;;;;;2.05;1.40;;;18.60;85.00;;;;;;5039211;28;20024;-84
2021/07/20 04:30:47;;;;;;;0.45;0.40;;;18.60;85.50;;;;;;5036803;28;20039;-84
2021/07/20 04:33:15;;;;;;;0.45;0.45;;;18.80;85.30;;;;;;5038103;28;20100;-84
2021/07/20 04:35:43;;;;;;;0.43;0.43;;;18.90;85.40;;;;;;5033716;28;20033;-84
2021/07/20 04:38:15;;;;;;;0.30;0.30;;;18.80;85.10;;;;;;5030312;28;20028;-84
2021/07/20 04:40:41;;;;;;;0.68;0.68;;;19.00;85.30;;;;;;5037326;28;20432;-84
2021/07/20 04:43:07;;;;;;;0.20;0.20;;;19.10;85.50;;;;;;5030132;28;20026;-85
2021/07/20 04:45:35;;;;;;;1.35;0.77;;;19.30;85.20;;;;;;5034954;28;20029;-85
2021/07/20 04:48:01;;;;;;;0.20;0.20;;;19.50;85.10;;;;;;5034329;28;20033;-85
2021/07/20 04:50:28;;;;;;;1.90;0.22;;;19.70;83.80;;;;;;5033569;28;20029;-85
2021/07/20 04:52:55;;;;;;;1.52;0.80;;;19.80;84.50;;;;;;5042439;28;20029;-86
2021/07/20 04:55:22;;;;;;;;;;;19.90;84.50;;;;;;5044757;28;20041;-85
2021/07/20 04:57:48;;;;;;;0.10;0.10;;;20.00;83.50;;;;;;5041196;28;19988;-86
2021/07/20 05:00:14;;;;;;;0.20;0.20;;;20.10;82.90;;;;;;5037255;28;20105;-85
2021/07/20 05:02:44;;;;;;;1.67;1.08;;;20.30;83.00;;;;;;5039547;28;20025;-82
2021/07/20 05:05:14;;;;;;;0.57;0.52;;;19.90;83.10;;;;;;5032962;28;20064;-86
2021/07/20 05:07:41;;;;;;;1.95;0.68;;;20.00;83.20;;;;;;5036859;28;20068;-87
2021/07/20 05:10:10;;;;;;;;;;;20.10;84.00;;;;;;5034537;28;20030;-88
2021/07/20 05:12:36;;;;;;;0.75;0.38;;;20.00;83.00;;;;;;5040890;28;19921;-86
2021/07/20 05:15:02;;;;;;;2.42;0.75;;;20.30;83.30;;;;;;5034893;28;20459;-86
2021/07/20 05:17:28;;;;;;;0.28;0.28;;;20.50;82.70;;;;;;5050361;28;20109;-84
2021/07/20 05:19:55;;;;;;;0.40;0.20;;;20.80;81.90;;;;;;5048980;28;20080;-84
2021/07/20 05:22:21;;;;;;;;;;;21.10;81.40;;;;;;5049313;28;20033;-84
2021/07/20 05:24:47;;;;;;;0.68;0.50;;;21.20;79.30;;;;;;5040041;28;19919;-85
2021/07/20 05:27:14;;;;;;;0.10;0.10;;;21.50;79.50;;;;;;5042580;28;20055;-85
2021/07/20 05:29:40;;;;;;;0.05;0.05;;;21.80;79.10;;;;;;5049132;28;20040;-85
2021/07/20 05:32:09;;;;;;;0.38;0.30;;;21.70;77.40;;;;;;5034472;28;20092;-85
2021/07/20 05:34:35;;;;;;;1.45;0.55;;;21.70;77.90;;;;;;5043983;28;20026;-85
2021/07/20 05:37:01;;;;;;;0.93;0.85;;;21.90;78.80;;;;;;5042494;28;20777;-85
2021/07/20 05:39:31;;;;;;;0.67;0.13;;;22.00;76.80;;;;;;5035216;28;20116;-85
2021/07/20 05:41:58;;;;;;;0.22;0.22;;;22.20;76.60;;;;;;5029638;28;20280;-85
2021/07/20 05:44:25;;;;;;;0.30;0.30;;;22.40;75.70;;;;;;5042557;28;20028;-83
2021/07/20 05:46:51;;;;;;;2.25;0.57;;;22.50;76.30;;;;;;5041022;28;20037;-85
2021/07/20 05:49:17;;;;;;;;;;;22.70;74.50;;;;;;5040841;28;20037;-85
2021/07/20 05:51:43;;;;;;;;;;;22.70;74.90;;;;;;5040728;28;21118;-85
2021/07/20 05:54:09;;;;;;;0.57;0.35;;;23.10;73.60;;;;;;5030561;28;19912;-85
2021/07/20 05:56:35;;;;;;;;;;;23.20;73.20;;;;;;5029909;28;20059;-85
2021/07/20 05:59:01;;;;;;;;;;;23.20;72.70;;;;;;5030072;28;19909;-85
2021/07/20 06:01:31;;;;;;;0.60;0.43;;;23.50;73.00;;;;;;5031304;28;20661;-85
2021/07/20 06:04:00;;;;;;;0.63;0.45;;;23.70;70.10;;;;;;5029829;28;20444;-85
2021/07/20 06:06:31;;;;;;;0.57;0.57;;;24.30;68.10;;;;;;5029655;28;20029;-85
2021/07/20 06:09:02;;;;;;;0.55;0.25;;;24.10;68.50;;;;;;5029479;28;20048;-85
2021/07/20 06:11:30;;;;;;;0.57;0.52;;;24.30;68.70;;;;;;5030933;28;20087;-85
2021/07/20 06:13:58;;;;;;;0.20;0.20;;;24.50;68.50;;;;;;5031107;28;20083;-85
2021/07/20 06:16:26;;;;;;;0.20;0.20;;;24.30;67.20;;;;;;5029316;28;20074;-85
2021/07/20 06:18:52;;;;;;;1.52;1.15;;;24.30;69.20;;;;;;5030853;28;20017;-85
2021/07/20 06:21:21;;;;;;;0.05;0.03;;;24.40;68.00;;;;;;5029408;28;20053;-85
2021/07/20 06:23:49;;;;;;;0.05;0.05;;;25.30;65.30;;;;;;5029542;28;20037;-85
2021/07/20 06:26:23;;;;;;;0.63;0.50;;;25.70;64.90;;;;;;5029215;28;20034;-85
2021/07/20 06:28:53;;;;;;;0.55;0.50;;;25.70;63.80;;;;;;5030560;28;20025;-85
2021/07/20 06:31:19;;;;;;;0.15;0.15;;;25.50;64.40;;;;;;5037356;28;20094;-85
2021/07/20 06:33:47;;;;;;;0.25;0.10;;;26.40;61.20;;;;;;5050494;28;20551;-85
2021/07/20 06:36:15;;;;;;;11.88;0.70;;;25.70;64.30;;;;;;5050345;28;20468;-85
2021/07/20 06:38:42;;;;;;;0.10;0.05;;;25.50;64.20;;;;;;5050506;28;20021;-85
2021/07/20 06:41:08;;;;;;;0.43;0.20;;;25.40;63.50;;;;;;5050533;28;20037;-85
2021/07/20 06:43:36;;;;;;;0.32;0.30;;;26.00;61.10;;;;;;5048704;28;20024;-85
2021/07/20 06:46:04;;;;;;;0.10;0.10;;;26.30;61.40;;;;;;5049078;28;20116;-85
2021/07/20 06:48:31;;;;;;;0.08;0.03;;;26.30;60.40;;;;;;5049998;28;20028;-85
2021/07/20 06:50:56;;;;;;;0.10;0.10;;;26.60;59.30;;;;;;5050333;28;20064;-85
2021/07/20 06:53:22;;;;;;;0.30;0.10;;;27.20;58.20;;;;;;5050081;28;20063;-85
2021/07/20 06:55:59;;;;;;;1.55;1.23;;;27.30;57.00;;;;;;5045888;28;20044;-85
2021/07/20 06:58:27;;;;;;;0.15;0.15;;;26.90;58.90;;;;;;5033234;28;20048;-85
2021/07/20 07:00:56;;;;;;;6.18;0.20;;;27.40;54.60;;;;;;5037029;28;20025;-85
2021/07/20 07:03:30;;;;;;;0.43;0.43;;;28.00;55.10;;;;;;5040221;28;20080;-85
2021/07/20 07:05:59;;;;;;;0.00;0.00;;;27.10;57.20;;;;;;5037107;28;20055;-85
2021/07/20 07:08:26;;;;;;;1.58;0.60;;;27.50;57.20;;;;;;5040111;28;20029;-86
2021/07/20 07:10:54;;;;;;;0.00;0.00;;;26.90;58.10;;;;;;5043680;28;20025;-85
2021/07/20 07:13:21;;;;;;;0.00;0.00;;;27.80;56.20;;;;;;5032429;28;20752;-85
2021/07/20 07:15:48;;;;;;;0.52;0.52;;;28.20;55.00;;;;;;5041353;28;20033;-85
2021/07/20 07:18:16;;;;;;;0.10;0.10;;;27.70;54.40;;;;;;5029714;28;20076;-85
2021/07/20 07:20:43;;;;;;;0.30;0.30;;;28.40;54.10;;;;;;5029397;28;20028;-85
2021/07/20 07:23:13;;;;;;;0.10;0.10;;;28.80;53.90;;;;;;5029684;28;20029;-85
2021/07/20 07:25:40;;;;;;;0.28;0.28;;;27.90;53.10;;;;;;5037711;28;20040;-85
2021/07/20 07:28:06;;;;;;;0.30;0.30;;;28.80;64.80;;;;;;5048269;28;20886;-85
2021/07/20 07:30:32;;;;;;;7.55;0.65;;;28.90;52.10;;;;;;5047469;28;20758;-85
2021/07/20 07:32:59;;;;;;;4.05;0.88;;;29.40;49.50;;;;;;5028692;28;20075;-85
2021/07/20 07:35:29;;;;;;;0.10;0.10;;;29.50;49.70;;;;;;5028118;28;20059;-85
2021/07/20 07:37:56;;;;;;;0.30;0.30;;;28.90;50.20;;;;;;5036857;28;20016;-85
2021/07/20 07:40:23;;;;;;;0.28;0.28;;;29.40;51.40;;;;;;5049428;28;20055;-85
2021/07/20 07:42:50;;;;;;;0.45;0.43;;;29.30;47.40;;;;;;5049018;28;20109;-85
2021/07/20 07:45:17;;;;;;;0.13;0.13;;;29.90;49.10;;;;;;5049342;28;20051;-85
2021/07/20 07:47:44;;;;;;;0.05;0.05;;;29.70;47.80;;;;;;5048915;28;20044;-85
2021/07/20 07:50:10;;;;;;;0.57;0.57;;;30.20;48.80;;;;;;5049176;28;20021;-85
2021/07/20 07:52:37;;;;;;;0.10;0.10;;;31.50;43.50;;;;;;5048766;28;20454;-86
2021/07/20 07:55:05;;;;;;;0.30;0.30;;;31.20;45.20;;;;;;5047497;28;20155;-86
2021/07/20 07:57:31;;;;;;;0.17;0.08;;;31.70;43.80;;;;;;5048911;28;20447;-86
2021/07/20 07:59:59;;;;;;;0.15;0.15;;;32.10;41.90;;;;;;5047748;28;20028;-86
2021/07/20 08:02:30;;;;;;;0.10;0.10;;;31.10;41.30;;;;;;5048743;28;20064;-86
2021/07/20 08:04:58;;;;;;;0.43;0.38;;;31.60;40.80;;;;;;5047338;28;20840;-86
2021/07/20 08:07:25;;;;;;;0.20;0.20;;;31.50;42.90;;;;;;5047671;28;20446;-86
2021/07/20 08:09:52;;;;;;;0.20;0.20;;;32.70;40.40;;;;;;5048527;28;20485;-86
2021/07/20 08:12:18;;;;;;;0.30;0.20;;;32.20;39.50;;;;;;5048747;28;20029;-86
2021/07/20 08:14:44;;;;;;;0.85;0.50;;;33.20;36.00;;;;;;5047155;28;20029;-86
2021/07/20 08:17:11;;;;;;;0.32;0.32;;;32.60;31.50;;;;;;5047308;28;20039;-86
2021/07/20 08:19:38;;;;;;;0.03;0.03;;;33.10;34.00;;;;;;5047104;28;20056;-86
2021/07/20 08:22:09;;;;;;;0.93;0.80;;;32.60;33.00;;;;;;5047286;28;20035;-86
2021/07/20 08:24:40;;;;;;;0.45;0.32;;;32.90;35.50;;;;;;5048700;28;20051;-86
2021/07/20 08:27:44;;;;;;;0.32;0.32;;;33.40;30.70;;;;;;5048363;28;20029;-86
2021/07/20 08:30:11;;;;;;;0.30;0.30;;;34.10;30.40;;;;;;5046124;28;20072;-86
2021/07/20 08:32:48;;;;;;;0.28;0.28;;;34.40;28.60;;;;;;5029008;28;20041;-86
2021/07/20 08:35:22;;;;;;;0.10;0.08;;;34.70;29.10;;;;;;5045831;28;20037;-86
2021/07/20 08:37:50;;;;;;;0.10;0.10;;;34.40;27.00;;;;;;5045806;28;20025;-86
2021/07/20 08:40:36;;;;;;;0.47;0.47;;;34.50;25.70;;;;;;5029334;28;20041;-87
2021/07/20 08:43:22;;;;;;;1.30;0.85;;;35.30;26.00;;;;;;5045765;28;20040;-86
2021/07/20 08:46:24;;;;;;;0.03;0.03;;;35.80;23.80;;;;;;5030879;28;20064;-86
2021/07/20 08:49:15;;;;;;;0.65;0.65;;;36.30;25.40;;;;;;5033042;28;20049;-86
2021/07/20 08:51:59;;;;;;;0.65;0.50;;;37.60;19.50;;;;;;5033162;28;20032;-87
2021/07/20 08:54:55;;;;;;;0.10;0.10;;;37.70;17.20;;;;;;5049742;28;20029;-86
2021/07/20 08:57:42;;;;;;;0.20;0.20;;;38.30;16.10;;;;;;5049735;28;20541;-86
2021/07/20 09:00:14;;;;;;;0.75;0.38;;;34.80;18.30;;;;;;5049592;28;20517;-86
2021/07/20 09:03:07;;;;;;;0.25;0.25;;;36.60;16.60;;;;;;5033009;28;20025;-86
2021/07/20 09:06:08;;;;;;;1.17;0.20;;;36.80;21.00;;;;;;5050776;28;20033;-86
2021/07/20 09:08:44;;;;;;;0.00;0.00;;;38.80;14.10;;;;;;5052188;28;20033;-86
2021/07/20 09:11:22;;;;;;;0.20;0.17;;;38.10;17.30;;;;;;5051893;28;20519;-86
2021/07/20 09:14:16;;;;;;;0.38;0.38;;;36.90;16.90;;;;;;5050706;28;20507;-86
2021/07/20 09:16:49;;;;;;;0.75;0.50;;;37.10;13.40;;;;;;5050483;28;20028;-86
2021/07/20 09:19:34;;;;;;;0.20;0.20;;;37.00;15.00;;;;;;5050349;28;20737;-86
2021/07/20 09:22:06;;;;;;;;;;;37.90;15.60;;;;;;5052186;28;20021;-86
2021/07/20 09:24:57;;;;;;;0.00;0.00;;;39.00;12.80;;;;;;5050640;28;20368;-86
2021/07/20 09:27:35;;;;;;;0.20;0.20;;;36.90;10.30;;;;;;5051781;28;20025;-87
2021/07/20 09:30:09;;;;;;;0.38;0.32;;;37.20;8.90;;;;;;5049864;28;20033;-86
2021/07/20 09:32:49;;;;;;;0.35;0.35;;;39.70;8.80;;;;;;5067278;28;20036;-87
2021/07/20 09:35:40;;;;;;;0.88;0.88;;;40.80;7.50;;;;;;5070013;28;20067;-86
2021/07/20 09:38:18;;;;;;;0.00;0.00;;;38.70;7.30;;;;;;5070082;28;20028;-87
2021/07/20 09:41:08;;;;;;;1.35;0.68;;;40.80;3.70;;;;;;5069062;28;20051;-86
2021/07/20 09:43:58;;;;;;;0.10;0.10;;;40.40;5.10;;;;;;5039581;28;20025;-87
2021/07/20 09:47:10;;;;;;;0.30;0.20;;;41.40;1.00;;;;;;5022459;28;20037;-87
2021/07/20 09:50:05;;;;;;;11.80;1.30;;;41.00;3.20;;;;;;4961568;28;20042;-87
2021/07/20 09:52:42;;;;;;;0.20;0.20;;;38.90;6.40;;;;;;4958611;28;20058;-86
2021/07/20 09:55:21;;;;;;;0.08;0.08;;;41.50;2.10;;;;;;4972609;28;20495;-87
2021/07/20 09:58:21;;;;;;;0.45;0.45;;;41.10;2.00;;;;;;4957418;28;20534;-87
2021/07/20 10:00:51;;;;;;;0.77;0.32;;;41.00;1.00;;;;;;4955876;28;20034;-86
2021/07/20 10:03:23;;;;;;;2.50;0.80;;;41.70;1.00;;;;;;4972957;28;20034;-88
2021/07/20 10:06:02;;;;;;;1.75;0.65;;;42.90;1.00;;;;;;4961751;28;20023;-88
2021/07/20 10:08:56;;;;;;;0.30;0.30;;;41.90;1.00;;;;;;4951153;28;20134;-87
2021/07/20 10:11:41;;;;;;;0.25;0.25;;;40.70;1.00;;;;;;4956304;28;20495;-87
2021/07/20 10:14:10;;;;;;;0.10;0.10;;;43.40;1.00;;;;;;4969666;28;20037;-88
2021/07/20 10:16:47;;;;;;;5.90;0.30;;;41.90;1.00;;;;;;4945447;28;20145;-88
2021/07/20 10:19:24;;;;;;;0.57;0.25;;;41.70;1.00;;;;;;4965256;28;20035;-86
2021/07/20 10:21:52;;;;;;;1.70;0.63;;;42.50;1.00;;;;;;4968422;28;20129;-87
2021/07/20 10:24:24;;;;;;;0.22;0.22;;;40.40;1.00;;;;;;4968171;28;20093;-86
2021/07/20 10:27:05;;;;;;;0.00;0.00;;;40.90;1.00;;;;;;5017271;28;20045;-86
2021/07/20 10:30:02;;;;;;;0.90;0.50;;;43.40;1.00;;;;;;5032575;28;20024;-85
2021/07/20 10:32:59;;;;;;;0.32;0.30;;;42.90;1.00;;;;;;5043077;28;20017;-86
2021/07/20 10:35:30;;;;;;;0.00;0.00;;;44.50;1.00;;;;;;5039179;28;20029;-86
2021/07/20 10:37:59;;;;;;;0.15;0.15;;;44.50;1.00;;;;;;5036138;28;20033;-86
2021/07/20 10:40:26;;;;;;;0.20;0.15;;;44.80;1.00;;;;;;5036905;28;20385;-86
2021/07/20 10:43:19;;;;;;;0.10;0.10;;;44.20;1.00;;;;;;5036127;28;20548;-86
2021/07/20 10:45:48;;;;;;;0.50;0.47;;;42.60;1.00;;;;;;5037249;28;20048;-86
2021/07/20 10:48:21;;;;;;;3.30;0.57;;;41.40;1.00;;;;;;5035798;28;20029;-85
2021/07/20 10:51:11;;;;;;;0.88;0.30;;;43.50;1.00;;;;;;5031586;28;20021;-90
2021/07/20 10:54:02;;;;;;;0.22;0.10;;;43.90;1.00;;;;;;5034961;28;20037;-90
2021/07/20 10:56:41;;;;;;;2.17;0.50;;;44.90;1.00;;;;;;5032829;28;20520;-91
2021/07/20 10:59:32;;;;;;;0.43;0.43;;;44.60;1.00;;;;;;5035758;28;20052;-90
2021/07/20 11:02:02;;;;;;;0.10;0.10;;;43.40;1.00;;;;;;5032601;28;20056;-90
2021/07/20 11:04:28;;;;;;;0.10;0.10;;;45.00;1.00;;;;;;5034505;28;20021;-90
2021/07/20 11:06:55;;;;;;;1.23;0.28;;;43.50;1.00;;;;;;5036946;28;20041;-90
2021/07/20 11:09:25;;;;;;;0.45;0.45;;;42.50;1.00;;;;;;5034968;28;20444;-90
2021/07/20 11:12:02;;;;;;;0.45;0.43;;;42.40;1.00;;;;;;5035457;28;20387;-89
2021/07/20 11:14:33;;;;;;;0.43;0.43;;;40.80;1.00;;;;;;5032139;28;20521;-89
2021/07/20 11:17:00;;;;;;;0.08;0.08;;;43.30;1.00;;;;;;5038164;28;20481;-90
2021/07/20 11:19:29;;;;;;;0.30;0.30;;;44.00;1.00;;;;;;5032525;28;20120;-90
2021/07/20 11:21:57;;;;;;;0.03;0.03;;;43.90;1.00;;;;;;5034137;28;20036;-90
2021/07/20 11:24:31;;;;;;;0.20;0.20;;;44.30;1.00;;;;;;5033416;28;20031;-90
2021/07/20 11:27:01;;;;;;;0.32;0.32;;;45.10;1.00;;;;;;5031105;28;20532;-89
2021/07/20 11:29:30;;;;;;;0.98;0.47;;;44.20;1.00;;;;;;5037340;28;20564;-91
2021/07/20 11:32:02;;;;;;;0.57;0.30;;;43.40;1.00;;;;;;5035189;28;20033;-90
2021/07/20 11:34:36;;;;;;;0.50;0.50;;;44.10;1.00;;;;;;5033860;28;20045;-90
2021/07/20 11:37:08;;;;;;;1.23;0.50;;;44.10;1.00;;;;;;5033981;28;20033;-89
2021/07/20 11:39:55;;;;;;;0.10;0.10;;;37.30;1.00;;;;;;5035789;28;20013;-89
2021/07/20 11:42:43;;;;;;;0.30;0.30;;;34.90;1.00;;;;;;5034810;28;20036;-89
2021/07/20 11:45:09;;;;;;;0.40;0.40;;;33.30;3.80;;;;;;5046725;28;20024;-89
2021/07/20 11:48:05;;;;;;;0.10;0.10;;;32.80;6.70;;;;;;5030608;28;20494;-89
2021/07/20 11:51:00;;;;;;;1.75;0.63;;;32.70;9.00;;;;;;5028868;28;20034;-88
2021/07/20 11:53:33;;;;;;;0.10;0.10;;;32.20;10.40;;;;;;5028881;28;20038;-88
2021/07/20 11:56:07;;;;;;;2.20;0.35;;;32.60;10.00;;;;;;5030741;28;20053;-88
2021/07/20 11:58:56;;;;;;;9.52;1.23;;;32.60;10.30;;;;;;5029015;28;20037;-89
2021/07/20 12:01:41;;;;;;;0.00;0.00;;;32.60;10.40;;;;;;5032227;28;20389;-88
2021/07/20 12:04:38;;;;;;;1.38;0.17;;;32.30;13.20;;;;;;5034980;28;20575;-88
2021/07/20 12:07:23;;;;;;;0.10;0.10;;;32.20;12.80;;;;;;5034458;28;20064;-88
2021/07/20 12:10:05;;;;;;;0.63;0.55;;;32.30;12.90;;;;;;5034542;28;20104;-89
2021/07/20 12:12:57;;;;;;;0.20;0.20;;;32.10;12.80;;;;;;5028295;28;20117;-89
2021/07/20 12:15:25;;;;;;;4.97;1.23;;;32.10;13.10;;;;;;5033168;28;20091;-89
2021/07/20 12:17:52;;;;;;;0.00;0.00;;;32.20;14.40;;;;;;5035825;28;20025;-88
2021/07/20 12:20:23;;;;;;;0.82;0.65;;;31.60;13.50;;;;;;5038150;28;20029;-89
2021/07/20 12:22:57;;;;;;;0.90;0.77;;;31.60;15.20;;;;;;5048483;28;20027;-88
2021/07/20 12:25:25;;;;;;;0.60;0.52;;;31.30;14.80;;;;;;5040544;28;20025;-88
2021/07/20 12:27:59;;;;;;;1.15;0.93;;;30.80;15.60;;;;;;5041621;28;20021;-89
2021/07/20 12:30:26;;;;;;;0.60;0.60;;;30.70;16.10;;;;;;5037110;28;20053;-89
2021/07/20 12:32:53;;;;;;;0.13;0.10;;;30.60;16.00;;;;;;5037442;28;20079;-89
2021/07/20 12:35:23;;;;;;;0.20;0.20;;;30.60;15.80;;;;;;5032171;28;20091;-88
2021/07/20 12:38:02;;;;;;;1.17;0.85;;;30.60;15.50;;;;;;5038739;28;20032;-89
2021/07/20 12:40:29;;;;;;;1.10;0.63;;;30.60;17.10;;;;;;5052101;28;20025;-89
2021/07/20 12:43:05;;;;;;;0.73;0.45;;;30.60;25.80;;;;;;5052201;28;20155;-88
2021/07/20 12:45:31;;;;;;;0.50;0.40;;;30.50;16.20;;;;;;5051132;28;20032;-89
2021/07/20 12:47:57;;;;;;;0.30;0.30;;;30.60;16.10;;;;;;5052242;28;20078;-88
2021/07/20 12:50:23;;;;;;;0.13;0.13;;;30.80;16.00;;;;;;5052537;28;20496;-88
2021/07/20 12:52:50;;;;;;;0.35;0.25;;;30.50;15.40;;;;;;5051928;28;20093;-88
2021/07/20 12:55:21;;;;;;;0.32;0.32;;;31.00;15.50;;;;;;5052120;28;20415;-89
2021/07/20 12:57:54;;;;;;;0.47;0.47;;;31.30;16.80;;;;;;5051896;28;20037;-88
2021/07/20 13:00:23;;;;;;;1.90;1.13;;;30.80;16.20;;;;;;5050858;28;20803;-88
2021/07/20 13:02:51;;;;;;;0.20;0.20;;;30.70;16.10;;;;;;5050592;28;20110;-88
2021/07/20 13:05:23;;;;;;;0.28;0.28;;;30.70;16.80;;;;;;5052424;28;20053;-88
2021/07/20 13:07:52;;;;;;;1.35;0.70;;;30.60;16.40;;;;;;5051994;28;20032;-90
2021/07/20 13:10:18;;;;;;;0.43;0.43;;;30.70;16.90;;;;;;5040604;28;20037;-89
2021/07/20 13:12:48;;;;;;;0.70;0.47;;;30.90;17.00;;;;;;5033330;28;20571;-89
2021/07/20 13:15:21;;;;;;;0.30;0.20;;;30.70;17.20;;;;;;5042872;28;20032;-90
2021/07/20 13:17:51;;;;;;;0.30;0.20;;;30.70;17.50;;;;;;5044499;28;20033;-86
2021/07/20 13:20:23;;;;;;;1.00;0.75;;;30.60;17.30;;;;;;5040293;28;20018;-88